createdAt,value
2019-06-01T00:00:16.611Z,101886.48
2019-06-01T00:02:52.540Z,101884.61
2019-06-01T00:05:16.762Z,101890.38
2019-06-01T00:07:46.977Z,101886.65
2019-06-01T00:10:16.263Z,101887.68
2019-06-01T00:12:45.361Z,101882.95
2019-06-01T00:15:14.349Z,101880.26
2019-06-01T00:17:43.901Z,101879.27
2019-06-01T00:20:12.988Z,101878.92
2019-06-01T00:22:43.293Z,101873.55
2019-06-01T00:25:12.565Z,101873.37
2019-06-01T00:27:42.502Z,101867.80
2019-06-01T00:30:26.205Z,101867.47
2019-06-01T00:32:43.122Z,101864.63
2019-06-01T00:35:12.144Z,101863.11
2019-06-01T00:37:41.369Z,101865.16
2019-06-01T00:40:10.671Z,101864.31
2019-06-01T00:42:39.695Z,101861.45
2019-06-01T00:45:08.926Z,101859.12
2019-06-01T00:47:38.231Z,101858.62
2019-06-01T00:50:08.026Z,101866.83
2019-06-01T00:52:37.034Z,101870.05
2019-06-01T00:55:07.182Z,101860.47
2019-06-01T00:57:36.201Z,101859.97
2019-06-01T01:00:06.304Z,101862.16
2019-06-01T01:02:35.629Z,101867.86
2019-06-01T01:05:17.736Z,101860.42
2019-06-01T01:07:46.758Z,101860.07
2019-06-01T01:10:16.066Z,101860.77
2019-06-01T01:13:06.051Z,101859.41
2019-06-01T01:15:35.450Z,101863.83
2019-06-01T01:18:04.947Z,101863.83
2019-06-01T01:20:33.994Z,101864.17
2019-06-01T01:23:03.370Z,101860.80
2019-06-01T01:25:32.459Z,101857.08
2019-06-01T01:28:01.439Z,101861.77
2019-06-01T01:30:30.785Z,101865.83
2019-06-01T01:32:59.815Z,101856.09
2019-06-01T01:35:28.955Z,101855.06
2019-06-01T01:37:58.927Z,101860.80
2019-06-01T01:40:28.922Z,101861.44
2019-06-01T01:42:58.910Z,101860.92
2019-06-01T01:45:28.397Z,101859.77
2019-06-01T01:47:57.754Z,101860.12
2019-06-01T01:50:27.564Z,101863.51
2019-06-01T01:52:57.233Z,101857.77
2019-06-01T01:55:26.581Z,101861.33
2019-06-01T01:57:55.589Z,101860.45
2019-06-01T02:00:44.381Z,101858.13
2019-06-01T02:03:13.748Z,101856.09
2019-06-01T02:05:43.086Z,101851.70
2019-06-01T02:08:12.615Z,101855.42
2019-06-01T02:10:42.181Z,101854.40
2019-06-01T02:13:11.436Z,101857.27
2019-06-01T02:15:42.123Z,101851.72
2019-06-01T02:18:11.798Z,101843.97
2019-06-01T02:20:40.846Z,101844.97
2019-06-01T02:23:10.532Z,101847.99
2019-06-01T02:25:39.632Z,101842.60
2019-06-01T02:28:08.774Z,101841.11
2019-06-01T02:30:38.091Z,101839.92
2019-06-01T02:33:07.087Z,101844.29
2019-06-01T02:35:36.512Z,101841.27
2019-06-01T02:38:06.055Z,101845.98
2019-06-01T02:40:35.223Z,101845.98
2019-06-01T02:43:06.878Z,101844.80
2019-06-01T02:45:34.978Z,101849.70
2019-06-01T02:48:06.128Z,101853.73
2019-06-01T02:50:34.758Z,101847.67
2019-06-01T02:53:04.167Z,101855.54
2019-06-01T02:55:33.183Z,101859.59
2019-06-01T02:58:02.494Z,101851.32
2019-06-01T03:01:23.045Z,101856.20
2019-06-01T03:03:53.066Z,101862.74
2019-06-01T03:06:22.124Z,101858.55
2019-06-01T03:08:53.473Z,101856.34
2019-06-01T03:11:24.129Z,101853.28
2019-06-01T03:13:55.364Z,101850.59
2019-06-01T03:16:27.365Z,101849.53
2019-06-01T03:19:00.073Z,101856.62
2019-06-01T03:21:31.268Z,101857.97
2019-06-01T03:24:09.674Z,101853.25
2019-06-01T03:26:46.365Z,101861.13
2019-06-01T03:29:17.635Z,101856.93
2019-06-01T03:31:46.796Z,101858.28
2019-06-01T03:34:16.493Z,101852.49
2019-06-01T03:36:45.812Z,101853.83
2019-06-01T03:39:14.829Z,101852.94
2019-06-01T03:41:43.861Z,101850.09
2019-06-01T03:44:13.105Z,101854.80
2019-06-01T03:46:42.176Z,101850.61
2019-06-01T03:49:11.959Z,101855.17
2019-06-01T03:51:41.124Z,101857.55
2019-06-01T03:54:10.308Z,101854.55
2019-06-01T03:56:40.027Z,101865.12
2019-06-01T03:59:09.409Z,101868.37
2019-06-01T04:01:38.490Z,101866.86
2019-06-01T04:04:09.235Z,101869.41
2019-06-01T04:06:38.425Z,101865.36
2019-06-01T04:09:09.856Z,101861.02
2019-06-01T04:11:39.366Z,101864.69
2019-06-01T04:14:09.847Z,101868.41
2019-06-01T04:16:42.417Z,101865.02
2019-06-01T04:19:12.292Z,101869.09
2019-06-01T04:21:41.285Z,101871.11
2019-06-01T04:24:10.361Z,101876.14
2019-06-01T04:26:39.401Z,101875.15
2019-06-01T04:29:10.299Z,101867.59
2019-06-01T04:31:39.436Z,101869.77
2019-06-01T04:34:08.816Z,101868.42
2019-06-01T04:36:38.610Z,101871.11
2019-06-01T04:39:09.342Z,101854.83
2019-06-01T04:41:38.583Z,101860.05
2019-06-01T04:44:09.928Z,101860.05
2019-06-01T04:46:39.146Z,101857.04
2019-06-01T04:49:08.616Z,101859.05
2019-06-01T04:51:37.896Z,101861.08
2019-06-01T04:54:06.962Z,101856.87
2019-06-01T04:56:35.957Z,101857.71
2019-06-01T04:59:05.078Z,101857.88
2019-06-01T05:01:35.839Z,101855.04
2019-06-01T05:04:05.019Z,101857.38
2019-06-01T05:06:35.469Z,101863.13
2019-06-01T05:09:07.322Z,101865.13
2019-06-01T05:11:36.721Z,101858.45
2019-06-01T05:14:05.992Z,101860.81
2019-06-01T05:16:35.060Z,101859.80
2019-06-01T05:19:05.955Z,101858.79
2019-06-01T05:21:37.992Z,101856.44
2019-06-01T05:24:07.081Z,101855.58
2019-06-01T05:26:36.112Z,101855.77
2019-06-01T05:29:05.586Z,101856.75
2019-06-01T05:31:34.676Z,101853.72
2019-06-01T05:34:04.396Z,101860.78
2019-06-01T05:36:33.433Z,101859.08
2019-06-01T05:39:02.563Z,101869.84
2019-06-01T05:41:31.560Z,101864.73
2019-06-01T05:44:00.548Z,101861.67
2019-06-01T05:46:29.615Z,101863.99
2019-06-01T05:48:58.621Z,101867.67
2019-06-01T05:51:27.660Z,101859.35
2019-06-01T05:53:56.723Z,101871.97
2019-06-01T05:56:25.869Z,101860.75
2019-06-01T05:58:54.907Z,101867.95
2019-06-01T06:01:23.960Z,101862.03
2019-06-01T06:03:52.943Z,101861.95
2019-06-01T06:06:22.144Z,101867.59
2019-06-01T06:08:51.268Z,101870.25
2019-06-01T06:11:21.167Z,101869.20
2019-06-01T06:13:50.284Z,101876.03
2019-06-01T06:16:20.860Z,101873.53
2019-06-01T06:18:50.978Z,101875.55
2019-06-01T06:21:20.336Z,101863.84
2019-06-01T06:23:49.466Z,101875.25
2019-06-01T06:26:19.156Z,101871.19
2019-06-01T06:28:49.697Z,101869.06
2019-06-01T06:31:19.160Z,101870.53
2019-06-01T06:33:56.620Z,101871.18
2019-06-01T06:36:19.787Z,101873.77
2019-06-01T06:38:49.307Z,101866.68
2019-06-01T06:41:18.379Z,101872.16
2019-06-01T06:43:47.421Z,101866.79
2019-06-01T06:46:17.188Z,101871.14
2019-06-01T06:48:46.948Z,101868.73
2019-06-01T06:51:17.170Z,101869.45
2019-06-01T06:53:46.682Z,101868.66
2019-06-01T06:56:16.087Z,101866.05
2019-06-01T06:58:45.295Z,101870.33
2019-06-01T07:01:14.685Z,101872.66
2019-06-01T07:03:43.800Z,101866.43
2019-06-01T07:06:12.859Z,101870.42
2019-06-01T07:08:41.938Z,101867.02
2019-06-01T07:11:12.059Z,101879.88
2019-06-01T07:13:41.294Z,101874.41
2019-06-01T07:16:11.893Z,101867.47
2019-06-01T07:18:41.222Z,101870.86
2019-06-01T07:21:10.706Z,101869.75
2019-06-01T07:23:40.053Z,101874.34
2019-06-01T07:26:09.093Z,101875.71
2019-06-01T07:28:38.168Z,101871.23
2019-06-01T07:31:07.380Z,101868.27
2019-06-01T07:33:37.367Z,101867.63
2019-06-01T07:36:06.790Z,101876.48
2019-06-01T07:38:35.865Z,101877.77
2019-06-01T07:41:04.915Z,101880.34
2019-06-01T07:43:34.421Z,101881.22
2019-06-01T07:46:03.434Z,101886.34
2019-06-01T07:48:33.434Z,101882.30
2019-06-01T07:51:02.668Z,101879.64
2019-06-01T07:53:32.356Z,101877.73
2019-06-01T07:56:01.439Z,101879.79
2019-06-01T07:58:30.765Z,101881.78
2019-06-01T08:00:59.857Z,101874.63
2019-06-01T08:03:32.917Z,101872.52
2019-06-01T08:06:00.411Z,101871.55
2019-06-01T08:08:29.605Z,101873.72
2019-06-01T08:10:58.715Z,101874.37
2019-06-01T08:13:32.263Z,101866.05
2019-06-01T08:15:58.805Z,101869.39
2019-06-01T08:18:28.246Z,101865.31
2019-06-01T08:20:58.207Z,101860.78
2019-06-01T08:23:28.355Z,101853.48
2019-06-01T08:25:57.670Z,101861.56
2019-06-01T08:28:26.705Z,101853.41
2019-06-01T08:30:56.103Z,101852.20
2019-06-01T08:33:28.407Z,101850.36
2019-06-01T08:35:56.018Z,101848.89
2019-06-01T08:38:25.549Z,101853.95
2019-06-01T08:40:54.703Z,101854.70
2019-06-01T08:43:25.401Z,101846.16
2019-06-01T08:45:55.409Z,101853.05
2019-06-01T08:48:25.569Z,101850.08
2019-06-01T08:50:55.154Z,101848.15
2019-06-01T08:53:25.753Z,101847.88
2019-06-01T08:55:54.878Z,101840.19
2019-06-01T08:58:24.596Z,101848.67
2019-06-01T09:00:53.994Z,101844.66
2019-06-01T09:03:23.047Z,101848.05
2019-06-01T09:05:52.082Z,101843.80
2019-06-01T09:08:23.724Z,101845.55
2019-06-01T09:10:51.981Z,101845.97
2019-06-01T09:13:21.328Z,101849.78
2019-06-01T09:15:50.414Z,101841.47
2019-06-01T09:18:19.791Z,101843.64
2019-06-01T09:20:48.834Z,101839.70
2019-06-01T09:23:17.875Z,101849.05
2019-06-01T09:25:46.962Z,101846.71
2019-06-01T09:28:16.379Z,101841.53
2019-06-01T09:30:45.704Z,101839.26
2019-06-01T09:33:14.725Z,101830.76
2019-06-01T09:35:54.344Z,101836.42
2019-06-01T09:38:14.585Z,101834.80
2019-06-01T09:40:43.630Z,101830.80
2019-06-01T09:43:13.100Z,101827.52
2019-06-01T09:45:42.144Z,101834.45
2019-06-01T09:48:11.184Z,101833.64
2019-06-01T09:50:40.210Z,101837.44
2019-06-01T09:53:09.228Z,101828.73
2019-06-01T09:55:38.653Z,101834.44
2019-06-01T09:58:08.379Z,101836.64
2019-06-01T10:00:42.099Z,101838.28
2019-06-01T10:03:08.196Z,101836.30
2019-06-01T10:05:38.520Z,101832.20
2019-06-01T10:08:07.737Z,101826.69
2019-06-01T10:10:38.078Z,101828.55
2019-06-01T10:13:08.176Z,101831.91
2019-06-01T10:15:38.505Z,101815.67
2019-06-01T10:18:10.544Z,101811.75
2019-06-01T10:20:41.278Z,101817.02
2019-06-01T10:23:11.027Z,101816.35
2019-06-01T10:25:40.093Z,101812.77
2019-06-01T10:28:09.120Z,101820.04
2019-06-01T10:30:38.151Z,101818.97
2019-06-01T10:33:07.250Z,101816.11
2019-06-01T10:35:36.941Z,101810.33
2019-06-01T10:38:06.098Z,101806.39
2019-06-01T10:40:35.864Z,101805.67
2019-06-01T10:43:04.953Z,101808.98
2019-06-01T10:45:35.711Z,101807.63
2019-06-01T10:48:05.287Z,101812.23
2019-06-01T10:50:36.613Z,101811.03
2019-06-01T10:53:06.031Z,101808.20
2019-06-01T10:55:36.181Z,101804.97
2019-06-01T10:58:05.379Z,101807.80
2019-06-01T11:00:43.254Z,101809.30
2019-06-01T11:03:05.618Z,101806.39
2019-06-01T11:05:35.031Z,101811.69
2019-06-01T11:08:04.410Z,101802.50
2019-06-01T11:10:34.864Z,101796.42
2019-06-01T11:13:03.978Z,101801.42
2019-06-01T11:15:33.129Z,101796.04
2019-06-01T11:18:02.555Z,101798.17
2019-06-01T11:20:31.588Z,101797.28
2019-06-01T11:23:00.609Z,101793.44
2019-06-01T11:25:30.268Z,101788.15
2019-06-01T11:27:59.336Z,101792.91
2019-06-01T11:30:28.377Z,101784.34
2019-06-01T11:32:57.590Z,101782.67
2019-06-01T11:35:26.772Z,101785.66
2019-06-01T11:37:58.759Z,101771.69
2019-06-01T11:40:27.762Z,101769.05
2019-06-01T11:42:57.049Z,101769.11
2019-06-01T11:45:26.656Z,101757.97
2019-06-01T11:47:55.811Z,101762.11
2019-06-01T11:50:24.848Z,101748.30
2019-06-01T11:52:53.876Z,101748.66
2019-06-01T11:55:23.344Z,101757.44
2019-06-01T11:57:52.752Z,101747.17
2019-06-01T12:00:22.282Z,101740.17
2019-06-01T12:02:51.371Z,101741.02
2019-06-01T12:05:20.669Z,101734.86
2019-06-01T12:07:49.965Z,101722.42
2019-06-01T12:10:19.258Z,101727.55
2019-06-01T12:12:48.873Z,101717.00
2019-06-01T12:15:18.724Z,101717.84
2019-06-01T12:17:47.732Z,101713.00
2019-06-01T12:20:17.033Z,101717.53
2019-06-01T12:22:47.188Z,101717.06
2019-06-01T12:25:16.616Z,101709.64
2019-06-01T12:27:46.132Z,101717.02
2019-06-01T12:30:16.768Z,101708.29
2019-06-01T12:32:46.188Z,101708.63
2019-06-01T12:35:15.269Z,101706.14
2019-06-01T12:38:00.724Z,101709.89
2019-06-01T12:40:15.515Z,101708.23
2019-06-01T12:42:45.972Z,101702.60
2019-06-01T12:45:22.506Z,101703.67
2019-06-01T12:47:55.431Z,101697.56
2019-06-01T12:50:20.910Z,101696.59
2019-06-01T12:52:50.216Z,101700.05
2019-06-01T12:55:19.277Z,101689.69
2019-06-01T12:57:49.268Z,101691.81
2019-06-01T13:00:18.579Z,101694.89
2019-06-01T13:02:56.667Z,101683.77
2019-06-01T13:05:19.368Z,101673.72
2019-06-01T13:07:58.207Z,101678.59
2019-06-01T13:10:19.566Z,101678.85
2019-06-01T13:12:49.396Z,101673.38
2019-06-01T13:15:19.203Z,101665.35
2019-06-01T13:17:49.449Z,101657.11
2019-06-01T13:20:18.762Z,101659.95
2019-06-01T13:22:47.881Z,101657.96
2019-06-01T13:25:18.213Z,101657.27
2019-06-01T13:27:48.872Z,101650.21
2019-06-01T13:30:18.440Z,101644.04
2019-06-01T13:32:48.574Z,101641.77
2019-06-01T13:35:18.660Z,101640.30
2019-06-01T13:37:48.832Z,101637.14
2019-06-01T13:40:18.490Z,101641.64
2019-06-01T13:42:49.054Z,101643.09
2019-06-01T13:45:18.314Z,101630.63
2019-06-01T13:47:47.961Z,101633.92
2019-06-01T13:50:17.718Z,101630.88
2019-06-01T13:52:48.029Z,101631.80
2019-06-01T13:55:17.840Z,101629.28
2019-06-01T13:57:48.347Z,101620.88
2019-06-01T14:00:29.667Z,101619.54
2019-06-01T14:02:52.680Z,101617.17
2019-06-01T14:05:19.972Z,101622.23
2019-06-01T14:07:49.477Z,101607.91
2019-06-01T14:10:19.652Z,101611.43
2019-06-01T14:12:49.343Z,101612.29
2019-06-01T14:15:19.096Z,101609.94
2019-06-01T14:17:48.155Z,101605.00
2019-06-01T14:20:17.642Z,101616.56
2019-06-01T14:22:47.633Z,101599.14
2019-06-01T14:25:17.267Z,101590.42
2019-06-01T14:27:46.496Z,101593.65
2019-06-01T14:30:15.769Z,101598.44
2019-06-01T14:32:46.215Z,101597.03
2019-06-01T14:35:15.479Z,101600.00
2019-06-01T14:37:44.900Z,101598.11
2019-06-01T14:40:14.627Z,101587.33
2019-06-01T14:42:43.688Z,101597.95
2019-06-01T14:45:13.509Z,101592.70
2019-06-01T14:47:42.528Z,101596.57
2019-06-01T14:50:11.640Z,101589.81
2019-06-01T14:52:40.760Z,101592.04
2019-06-01T14:55:10.376Z,101583.31
2019-06-01T14:57:39.441Z,101585.73
2019-06-01T15:00:09.772Z,101580.66
2019-06-01T15:02:40.204Z,101573.41
2019-06-01T15:05:10.074Z,101566.93
2019-06-01T15:07:39.483Z,101564.31
2019-06-01T15:10:09.589Z,101562.77
2019-06-01T15:12:38.994Z,101562.25
2019-06-01T15:15:08.936Z,101556.67
2019-06-01T15:17:38.896Z,101553.58
2019-06-01T15:20:09.233Z,101558.49
2019-06-01T15:22:39.916Z,101547.72
2019-06-01T15:25:09.782Z,101549.84
2019-06-01T15:27:39.514Z,101548.63
2019-06-01T15:30:08.986Z,101543.62
2019-06-01T15:32:38.452Z,101543.56
2019-06-01T15:35:09.146Z,101545.30
2019-06-01T15:37:39.157Z,101535.03
2019-06-01T15:40:09.016Z,101533.36
2019-06-01T15:42:38.021Z,101534.23
2019-06-01T15:45:07.181Z,101527.06
2019-06-01T15:47:36.276Z,101522.77
2019-06-01T15:50:07.543Z,101525.72
2019-06-01T15:52:36.607Z,101517.25
2019-06-01T15:55:07.331Z,101513.72
2019-06-01T15:57:36.364Z,101512.34
2019-06-01T16:00:06.376Z,101514.48
2019-06-01T16:02:35.407Z,101505.47
2019-06-01T16:05:09.160Z,101510.52
2019-06-01T16:07:38.401Z,101506.80
2019-06-01T16:10:09.211Z,101499.68
2019-06-01T16:12:38.258Z,101504.02
2019-06-01T16:15:08.345Z,101494.91
2019-06-01T16:17:37.355Z,101484.78
2019-06-01T16:20:07.541Z,101488.02
2019-06-01T16:22:36.566Z,101490.78
2019-06-01T16:25:05.973Z,101476.77
2019-06-01T16:27:35.358Z,101476.41
2019-06-01T16:30:05.725Z,101485.36
2019-06-01T16:32:38.568Z,101484.00
2019-06-01T16:35:05.897Z,101477.94
2019-06-01T16:37:34.912Z,101474.07
2019-06-01T16:40:09.625Z,101471.58
2019-06-01T16:42:35.479Z,101468.55
2019-06-01T16:45:05.752Z,101476.30
2019-06-01T16:47:34.953Z,101473.81
2019-06-01T16:50:05.821Z,101461.66
2019-06-01T16:52:34.983Z,101471.30
2019-06-01T16:55:05.018Z,101471.02
2019-06-01T16:57:34.616Z,101467.16
2019-06-01T17:00:04.897Z,101471.00
2019-06-01T17:02:34.069Z,101468.27
2019-06-01T17:05:03.121Z,101473.48
2019-06-01T17:07:32.197Z,101461.38
2019-06-01T17:10:20.450Z,101460.78
2019-06-01T17:12:32.603Z,101451.16
2019-06-01T17:15:03.165Z,101445.88
2019-06-01T17:17:32.284Z,101446.73
2019-06-01T17:20:01.692Z,101443.41
2019-06-01T17:22:30.724Z,101447.25
2019-06-01T17:24:59.742Z,101442.20
2019-06-01T17:27:28.799Z,101434.67
2019-06-01T17:29:58.147Z,101436.32
2019-06-01T17:32:27.216Z,101428.86
2019-06-01T17:34:56.886Z,101428.40
2019-06-01T17:37:26.189Z,101425.84
2019-06-01T17:39:55.222Z,101427.27
2019-06-01T17:42:24.270Z,101424.73
2019-06-01T17:44:53.259Z,101428.58
2019-06-01T17:47:22.672Z,101422.84
2019-06-01T17:49:52.725Z,101421.42
2019-06-01T17:52:22.208Z,101416.19
2019-06-01T17:54:51.235Z,101416.52
2019-06-01T17:57:20.285Z,101415.09
2019-06-01T17:59:49.359Z,101415.62
2019-06-01T18:02:18.385Z,101415.00
2019-06-01T18:04:47.425Z,101415.69
2019-06-01T18:07:16.464Z,101410.97
2019-06-01T18:09:45.449Z,101410.70
2019-06-01T18:12:14.787Z,101409.00
2019-06-01T18:14:43.823Z,101407.42
2019-06-01T18:17:13.188Z,101403.42
2019-06-01T18:19:42.229Z,101399.63
2019-06-01T18:22:11.256Z,101398.30
2019-06-01T18:24:40.252Z,101391.59
2019-06-01T18:27:10.604Z,101394.82
2019-06-01T18:29:48.128Z,101401.53
2019-06-01T18:32:11.617Z,101398.59
2019-06-01T18:34:41.058Z,101393.91
2019-06-01T18:37:11.503Z,101391.46
2019-06-01T18:39:40.844Z,101384.88
2019-06-01T18:42:10.306Z,101385.38
2019-06-01T18:44:39.319Z,101391.23
2019-06-01T18:47:09.754Z,101387.82
2019-06-01T18:49:38.734Z,101389.25
2019-06-01T18:52:08.646Z,101388.95
2019-06-01T18:54:38.084Z,101388.64
2019-06-01T18:57:15.338Z,101382.96
2019-06-01T18:59:37.960Z,101379.75
2019-06-01T19:02:08.381Z,101381.38
2019-06-01T19:04:37.428Z,101385.92
2019-06-01T19:07:07.151Z,101381.51
2019-06-01T19:09:36.251Z,101377.00
2019-06-01T19:12:06.680Z,101379.00
2019-06-01T19:14:35.883Z,101375.94
2019-06-01T19:17:06.193Z,101378.03
2019-06-01T19:19:35.275Z,101377.09
2019-06-01T19:22:04.675Z,101381.12
2019-06-01T19:24:33.675Z,101378.84
2019-06-01T19:27:02.708Z,101373.50
2019-06-01T19:29:32.111Z,101372.86
2019-06-01T19:32:01.155Z,101375.43
2019-06-01T19:34:30.605Z,101370.33
2019-06-01T19:37:00.848Z,101376.62
2019-06-01T19:39:30.791Z,101367.92
2019-06-01T19:41:59.773Z,101370.33
2019-06-01T19:44:29.401Z,101370.46
2019-06-01T19:46:58.708Z,101374.00
2019-06-01T19:49:27.718Z,101368.16
2019-06-01T19:51:57.552Z,101375.34
2019-06-01T19:54:26.588Z,101375.42
2019-06-01T19:56:55.615Z,101371.69
2019-06-01T19:59:25.015Z,101372.90
2019-06-01T20:01:54.585Z,101370.33
2019-06-01T20:04:23.609Z,101371.59
2019-06-01T20:06:52.641Z,101375.22
2019-06-01T20:09:21.672Z,101371.18
2019-06-01T20:12:01.325Z,101373.73
2019-06-01T20:14:22.565Z,101380.34
2019-06-01T20:16:51.949Z,101373.52
2019-06-01T20:19:21.837Z,101382.45
2019-06-01T20:21:51.405Z,101371.28
2019-06-01T20:24:21.441Z,101382.65
2019-06-01T20:26:50.520Z,101375.34
2019-06-01T20:29:19.820Z,101372.17
2019-06-01T20:31:49.227Z,101366.50
2019-06-01T20:34:20.064Z,101364.18
2019-06-01T20:36:49.081Z,101362.61
2019-06-01T20:39:18.323Z,101361.31
2019-06-01T20:41:47.786Z,101366.55
2019-06-01T20:44:16.809Z,101366.49
2019-06-01T20:46:45.829Z,101368.38
2019-06-01T20:49:14.870Z,101362.63
2019-06-01T20:51:43.897Z,101369.66
2019-06-01T20:54:13.021Z,101364.51
2019-06-01T20:56:42.377Z,101364.55
2019-06-01T20:59:11.402Z,101362.87
2019-06-01T21:01:40.761Z,101366.09
2019-06-01T21:04:10.088Z,101360.95
2019-06-01T21:06:39.786Z,101360.22
2019-06-01T21:09:09.598Z,101359.77
2019-06-01T21:11:38.886Z,101359.72
2019-06-01T21:14:07.892Z,101359.17
2019-06-01T21:16:37.202Z,101360.54
2019-06-01T21:19:06.588Z,101361.91
2019-06-01T21:21:35.622Z,101357.22
2019-06-01T21:24:05.258Z,101359.34
2019-06-01T21:26:34.320Z,101355.11
2019-06-01T21:29:03.381Z,101349.88
2019-06-01T21:31:32.382Z,101354.69
2019-06-01T21:34:01.374Z,101347.57
2019-06-01T21:36:30.407Z,101351.83
2019-06-01T21:38:59.400Z,101343.20
2019-06-01T21:41:28.423Z,101342.48
2019-06-01T21:43:57.421Z,101341.41
2019-06-01T21:46:26.461Z,101339.70
2019-06-01T21:48:55.469Z,101341.22
2019-06-01T21:51:25.927Z,101339.41
2019-06-01T21:53:54.979Z,101336.91
2019-06-01T21:56:25.255Z,101338.63
2019-06-01T21:58:55.107Z,101338.49
2019-06-01T22:01:24.872Z,101332.72
2019-06-01T22:03:54.506Z,101324.06
2019-06-01T22:06:23.635Z,101327.55
2019-06-01T22:08:53.109Z,101325.59
2019-06-01T22:11:23.514Z,101329.61
2019-06-01T22:13:52.688Z,101333.16
2019-06-01T22:16:21.758Z,101331.63
2019-06-01T22:18:51.497Z,101321.70
2019-06-01T22:21:21.727Z,101320.55
2019-06-01T22:23:50.787Z,101317.23
2019-06-01T22:26:19.903Z,101312.38
2019-06-01T22:28:49.219Z,101311.95
2019-06-01T22:31:18.346Z,101303.33
2019-06-01T22:33:48.413Z,101305.89
2019-06-01T22:36:18.492Z,101301.87
2019-06-01T22:38:47.517Z,101307.60
2019-06-01T22:41:16.551Z,101304.88
2019-06-01T22:43:47.129Z,101304.10
2019-06-01T22:46:16.766Z,101301.86
2019-06-01T22:48:45.790Z,101304.55
2019-06-01T22:51:14.806Z,101296.78
2019-06-01T22:53:43.823Z,101289.55
2019-06-01T22:56:13.299Z,101296.21
2019-06-01T22:58:42.314Z,101291.05
2019-06-01T23:01:11.341Z,101286.30
2019-06-01T23:03:40.352Z,101283.75
2019-06-01T23:06:09.352Z,101287.75
2019-06-01T23:08:38.356Z,101275.94
2019-06-01T23:11:07.381Z,101272.08
2019-06-01T23:13:52.338Z,101272.36
2019-06-01T23:16:07.476Z,101268.39
2019-06-01T23:18:37.099Z,101268.67
2019-06-01T23:21:06.421Z,101264.77
2019-06-01T23:23:35.781Z,101269.35
2019-06-01T23:26:04.799Z,101267.70
2019-06-01T23:28:38.436Z,101266.42
2019-06-01T23:31:05.172Z,101259.59
2019-06-01T23:33:34.213Z,101257.91
2019-06-01T23:36:03.588Z,101257.91
2019-06-01T23:38:32.972Z,101257.16
2019-06-01T23:41:01.954Z,101253.83
2019-06-01T23:43:31.031Z,101251.75
2019-06-01T23:46:00.018Z,101250.53
2019-06-01T23:48:29.365Z,101243.73
2019-06-01T23:50:59.157Z,101250.20
2019-06-01T23:53:28.202Z,101245.89
2019-06-01T23:55:57.224Z,101249.91
2019-06-01T23:58:26.269Z,101238.58
